Time;durP1;ratioP1;P1;durP2;ratioP2;P2;SDS_P1;SDS_P2;PMS_P1;PMS_P2;Temp;Humidity;BMP_temperature;BMP_pressure;BME280_temperature;BME280_humidity;BME280_pressure;Samples;Min_cycle;Max_cycle;Signal;HPM_P1;HPM_P2
2021/06/19 00:00:20;;;;;;;9.3;7.6;;;;;;;21.98;74.49121;938.0019;;;;
2021/06/19 00:02:45;;;;;;;9.7;7.5;;;;;;;21.86;74.71582;937.9998;;;;
2021/06/19 00:05:10;;;;;;;8.5;7.6;;;;;;;21.78;75.31152;937.9902;;;;
2021/06/19 00:07:35;;;;;;;9.9;8.2;;;;;;;21.59;75.38477;937.9904;;;;
2021/06/19 00:10:02;;;;;;;10.1;8;;;;;;;21.56;75.69629;938.0392;;;;
2021/06/19 00:12:27;;;;;;;10.8;7.8;;;;;;;21.52;75.94824;938.0081;;;;
2021/06/19 00:14:53;;;;;;;10.2;7.4;;;;;;;21.39;76.62695;938.0358;;;;
2021/06/19 00:17:18;;;;;;;8.9;8;;;;;;;21.51;76.0166;938.0619;;;;
2021/06/19 00:19:43;;;;;;;11.5;8.3;;;;;;;21.56;75.60254;938.0539;;;;
2021/06/19 00:22:10;;;;;;;8.7;7.4;;;;;;;21.67;75.0127;938.0164;;;;
2021/06/19 00:24:35;;;;;;;9.1;7.9;;;;;;;21.67;75.16602;938.009;;;;
2021/06/19 00:27:01;;;;;;;10.7;7.3;;;;;;;21.69;75.17969;937.9817;;;;
2021/06/19 00:29:26;;;;;;;9.3;8.2;;;;;;;21.7;75.3916;938.0519;;;;
2021/06/19 00:31:53;;;;;;;9.5;7.5;;;;;;;21.72;75.27734;938.0253;;;;
2021/06/19 00:34:19;;;;;;;10.4;8.1;;;;;;;21.51;75.58301;938.0378;;;;
2021/06/19 00:36:45;;;;;;;10.4;7.8;;;;;;;21.43;75.78027;938.0558;;;;
2021/06/19 00:39:10;;;;;;;9.9;8;;;;;;;21.38;76.0752;938.0985;;;;
2021/06/19 00:41:39;;;;;;;10.3;8.5;;;;;;;21.14;77.18164;938.1589;;;;
2021/06/19 00:44:04;;;;;;;9.1;7.8;;;;;;;21.03;77.61719;938.1089;;;;
2021/06/19 00:46:29;;;;;;;10.6;8.5;;;;;;;20.95;77.89648;938.2349;;;;
2021/06/19 00:48:54;;;;;;;10.3;8;;;;;;;20.9;78.16797;938.1775;;;;
2021/06/19 00:51:21;;;;;;;9.6;8.6;;;;;;;20.84;78.42676;938.2714;;;;
2021/06/19 00:53:46;;;;;;;10.8;8.4;;;;;;;20.95;78.07227;938.3167;;;;
2021/06/19 00:56:12;;;;;;;9.2;7.9;;;;;;;20.98;77.97168;938.3441;;;;
2021/06/19 00:58:50;;;;;;;9.9;8.1;;;;;;;20.96;77.96875;938.3422;;;;
2021/06/19 01:01:15;;;;;;;9;7.9;;;;;;;20.73;78.75684;938.3692;;;;
2021/06/19 01:03:40;;;;;;;10.9;8.3;;;;;;;20.68;79.10938;938.3766;;;;
2021/06/19 01:06:05;;;;;;;10.6;8.2;;;;;;;20.66;79.29297;938.3575;;;;
2021/06/19 01:08:30;;;;;;;11.6;9;;;;;;;20.87;78.5957;938.4356;;;;
2021/06/19 01:10:58;;;;;;;10.9;8.8;;;;;;;21.01;77.94141;938.3561;;;;
2021/06/19 01:13:25;;;;;;;11.7;8.9;;;;;;;21.02;78.25977;938.4095;;;;
2021/06/19 01:15:54;;;;;;;12.3;9.3;;;;;;;21.08;78.1416;938.4483;;;;
2021/06/19 01:18:21;;;;;;;12;8.9;;;;;;;21.1;78.14551;938.3828;;;;
2021/06/19 01:20:46;;;;;;;10.6;7.8;;;;;;;21.16;77.76758;938.3301;;;;
2021/06/19 01:23:13;;;;;;;11.5;8.8;;;;;;;21.15;77.5459;938.3513;;;;
2021/06/19 01:25:39;;;;;;;11.1;8.8;;;;;;;21.24;77.0918;938.4;;;;
2021/06/19 01:28:10;;;;;;;11.5;8.7;;;;;;;21.23;77.10352;938.4553;;;;
2021/06/19 01:30:32;;;;;;;11.4;8.7;;;;;;;21.17;77.25586;938.4973;;;;
2021/06/19 01:33:02;;;;;;;10.5;8.6;;;;;;;21.05;77.64355;938.4308;;;;
2021/06/19 01:35:31;;;;;;;10.4;8.7;;;;;;;21.05;77.52832;938.3844;;;;
2021/06/19 01:38:02;;;;;;;9.6;7.8;;;;;;;21.02;77.60352;938.403;;;;
2021/06/19 01:40:34;;;;;;;10.7;8.4;;;;;;;20.99;77.79785;938.4378;;;;
2021/06/19 01:43:03;;;;;;;9.7;8;;;;;;;20.96;77.82813;938.4297;;;;
2021/06/19 01:45:27;;;;;;;12;8;;;;;;;20.96;77.80273;938.408;;;;
2021/06/19 01:47:53;;;;;;;10.5;8.7;;;;;;;20.84;77.84082;938.3639;;;;
2021/06/19 01:50:18;;;;;;;12.6;8.3;;;;;;;20.73;78.43945;938.4592;;;;
2021/06/19 01:52:43;;;;;;;9.2;8.1;;;;;;;20.75;78.59766;938.4025;;;;
2021/06/19 01:55:09;;;;;;;10.3;8.8;;;;;;;20.87;78.1748;938.3605;;;;
2021/06/19 01:57:36;;;;;;;9.5;8.4;;;;;;;20.79;78.69824;938.3957;;;;
2021/06/19 02:00:00;;;;;;;10.7;8.3;;;;;;;20.83;78.5293;938.4072;;;;
2021/06/19 02:02:25;;;;;;;11;8.6;;;;;;;20.76;78.72852;938.3035;;;;
2021/06/19 02:05:11;;;;;;;12.2;8.6;;;;;;;20.79;78.28906;938.3723;;;;
2021/06/19 02:07:39;;;;;;;12.2;8.2;;;;;;;20.92;77.81055;938.3184;;;;
2021/06/19 02:10:04;;;;;;;10.4;8.1;;;;;;;20.94;78.04688;938.312;;;;
2021/06/19 02:12:29;;;;;;;10.5;8.5;;;;;;;20.99;77.64551;938.356;;;;
2021/06/19 02:14:59;;;;;;;11.9;8.3;;;;;;;20.92;77.94922;938.3566;;;;
2021/06/19 02:17:27;;;;;;;12.1;8.8;;;;;;;20.89;77.96875;938.367;;;;
2021/06/19 02:19:52;;;;;;;11.2;8.7;;;;;;;20.89;77.93262;938.3834;;;;
2021/06/19 02:22:18;;;;;;;10.4;8.7;;;;;;;20.85;78.00586;938.3748;;;;
2021/06/19 02:24:43;;;;;;;10.1;8.1;;;;;;;20.79;78.3252;938.3365;;;;
2021/06/19 02:27:10;;;;;;;10.9;8.9;;;;;;;20.5;79.40625;938.4191;;;;
2021/06/19 02:29:35;;;;;;;9.4;8.4;;;;;;;20.5;79.51074;938.4249;;;;
2021/06/19 02:32:02;;;;;;;10.7;8.5;;;;;;;20.64;78.74219;938.4356;;;;
2021/06/19 02:34:27;;;;;;;11.5;8.8;;;;;;;20.67;78.65332;938.4714;;;;
2021/06/19 02:36:52;;;;;;;9.7;8.7;;;;;;;20.68;78.60742;938.5237;;;;
2021/06/19 02:39:20;;;;;;;12.9;8.6;;;;;;;20.62;78.91309;938.5496;;;;
2021/06/19 02:41:45;;;;;;;11.8;8.7;;;;;;;20.62;78.9834;938.593;;;;
2021/06/19 02:44:13;;;;;;;11.3;8.7;;;;;;;20.64;78.85938;938.5813;;;;
2021/06/19 02:46:38;;;;;;;10.6;8.7;;;;;;;20.69;78.63379;938.5784;;;;
2021/06/19 02:49:05;;;;;;;10.5;8.3;;;;;;;20.39;79.42188;938.4995;;;;
2021/06/19 02:51:30;;;;;;;11;8.2;;;;;;;20.44;79.34766;938.4824;;;;
2021/06/19 02:53:58;;;;;;;9.5;8;;;;;;;20.52;78.8252;938.528;;;;
2021/06/19 02:56:23;;;;;;;9.7;8;;;;;;;20.54;78.4082;938.4894;;;;
2021/06/19 02:58:52;;;;;;;9.2;8.1;;;;;;;20.52;78.52148;938.5165;;;;
2021/06/19 03:01:17;;;;;;;9.9;8.3;;;;;;;20.59;78.35938;938.4814;;;;
2021/06/19 03:03:45;;;;;;;10.2;8.5;;;;;;;20.61;78.10352;938.5489;;;;
2021/06/19 03:06:10;;;;;;;11.5;8.6;;;;;;;20.52;78.46289;938.5613;;;;
2021/06/19 03:08:35;;;;;;;11.2;8.4;;;;;;;20.42;78.8877;938.5637;;;;
2021/06/19 03:11:01;;;;;;;10.2;8.4;;;;;;;20.38;78.80078;938.6024;;;;
2021/06/19 03:13:26;;;;;;;10;8.3;;;;;;;20.29;78.92285;938.6461;;;;
2021/06/19 03:15:55;;;;;;;10.3;8.3;;;;;;;20.04;80.02344;938.5919;;;;
2021/06/19 03:18:20;;;;;;;11.5;8.6;;;;;;;19.99;80.45508;938.6456;;;;
2021/06/19 03:20:48;;;;;;;11.1;8.7;;;;;;;19.79;81.71484;938.5769;;;;
2021/06/19 03:23:12;;;;;;;13.3;9.4;;;;;;;19.91;81.31738;938.693;;;;
2021/06/19 03:25:37;;;;;;;14.4;9.4;;;;;;;19.96;81.33887;938.6982;;;;
2021/06/19 03:28:03;;;;;;;13.1;8.8;;;;;;;20.07;80.92676;938.6907;;;;
2021/06/19 03:30:27;;;;;;;12.3;9.3;;;;;;;20.18;80.24609;938.7403;;;;
2021/06/19 03:32:52;;;;;;;10.5;8.9;;;;;;;19.92;81.43555;938.7436;;;;
2021/06/19 03:35:17;;;;;;;12.6;8.8;;;;;;;20.07;81.06641;938.7296;;;;
2021/06/19 03:37:45;;;;;;;13.9;9.2;;;;;;;20.24;80.05957;938.7469;;;;
2021/06/19 03:40:09;;;;;;;12.4;9.2;;;;;;;20.3;79.8252;938.8747;;;;
2021/06/19 03:42:35;;;;;;;13.7;9.2;;;;;;;20.27;79.83203;938.8949;;;;
2021/06/19 03:45:00;;;;;;;11.3;8.5;;;;;;;20.38;79.29102;938.8879;;;;
2021/06/19 03:47:29;;;;;;;9.8;8.2;;;;;;;20.52;78.55664;938.85;;;;
2021/06/19 03:49:55;;;;;;;12.1;8.9;;;;;;;20.57;78.56445;938.8964;;;;
2021/06/19 03:52:20;;;;;;;11.1;9.3;;;;;;;20.39;79.09473;938.8739;;;;
2021/06/19 03:55:42;;;;;;;9.4;7.8;;;;;;;20.26;79.57227;938.829;;;;
2021/06/19 03:58:10;;;;;;;10.3;8.3;;;;;;;20.36;79.48535;938.933;;;;
2021/06/19 04:02:30;;;;;;;11.7;8.7;;;;;;;20.44;78.6709;939.0432;;;;
2021/06/19 04:04:55;;;;;;;18.2;8.8;;;;;;;20.49;78.1543;938.998;;;;
2021/06/19 04:07:20;;;;;;;13.5;8.5;;;;;;;20.58;77.90039;939.0256;;;;
2021/06/19 04:09:47;;;;;;;11.5;8.4;;;;;;;20.68;78.04785;939.1039;;;;
2021/06/19 04:12:11;;;;;;;11.3;8.5;;;;;;;20.77;77.52637;938.9797;;;;
2021/06/19 04:14:36;;;;;;;10.9;7.9;;;;;;;20.7;77.79199;939.1284;;;;
2021/06/19 04:17:01;;;;;;;12.5;8.3;;;;;;;20.79;77.56445;939.1298;;;;
2021/06/19 04:19:27;;;;;;;10;8;;;;;;;20.77;77.8418;939.0988;;;;
2021/06/19 04:21:52;;;;;;;10.5;7.9;;;;;;;20.85;77.10645;939.0936;;;;
2021/06/19 04:24:17;;;;;;;11.5;8.1;;;;;;;21.04;75.45508;939.1378;;;;
2021/06/19 04:26:42;;;;;;;8.2;7.3;;;;;;;21.18;72.35645;939.1661;;;;
2021/06/19 04:29:07;;;;;;;10.4;7.8;;;;;;;21.37;72.63281;939.1803;;;;
2021/06/19 04:31:33;;;;;;;8.8;7.9;;;;;;;21.52;72.99609;939.1808;;;;
2021/06/19 04:33:59;;;;;;;7.7;6.9;;;;;;;21.56;72.27734;939.1788;;;;
2021/06/19 04:36:24;;;;;;;13.1;7.6;;;;;;;21.46;73.12793;939.2158;;;;
2021/06/19 04:38:49;;;;;;;11.4;7.8;;;;;;;21.46;74.05273;939.1809;;;;
2021/06/19 04:41:25;;;;;;;9.1;7.7;;;;;;;21.56;73.38965;939.2266;;;;
2021/06/19 04:44:03;;;;;;;9;7.8;;;;;;;21.63;73.74023;939.2612;;;;
2021/06/19 04:46:06;;;;;;;8.6;7.7;;;;;;;21.83;72.85059;939.1997;;;;
2021/06/19 04:48:32;;;;;;;10.2;7.7;;;;;;;21.94;72.65723;939.2919;;;;
2021/06/19 04:50:59;;;;;;;10.2;8;;;;;;;21.91;72.44043;939.2646;;;;
2021/06/19 04:53:24;;;;;;;10;7.3;;;;;;;22.04;71.57031;939.2656;;;;
2021/06/19 04:55:53;;;;;;;8.9;7.4;;;;;;;22.07;71.4707;939.2606;;;;
2021/06/19 04:58:18;;;;;;;9.6;7.9;;;;;;;22.18;71.86328;939.389;;;;
2021/06/19 05:00:43;;;;;;;10.8;7.9;;;;;;;22.17;71.31055;939.3685;;;;
2021/06/19 05:03:11;;;;;;;12.5;7.7;;;;;;;22.34;70.79883;939.4448;;;;
2021/06/19 05:05:35;;;;;;;10.1;7.7;;;;;;;22.67;69.68652;939.4708;;;;
2021/06/19 05:08:01;;;;;;;8.8;7.1;;;;;;;23.05;69.04297;939.5966;;;;
2021/06/19 05:10:26;;;;;;;9.7;7.1;;;;;;;23.35;67.59766;939.6652;;;;
2021/06/19 05:12:52;;;;;;;10.9;7.6;;;;;;;23.38;66.60254;939.6503;;;;
2021/06/19 05:15:21;;;;;;;10.2;7.1;;;;;;;23.56;67.25098;939.6733;;;;
2021/06/19 05:17:43;;;;;;;9.8;7.8;;;;;;;23.53;66.49414;939.7263;;;;
2021/06/19 05:20:13;;;;;;;10.4;7.8;;;;;;;23.5;66.96094;939.7559;;;;
2021/06/19 05:22:33;;;;;;;9.8;8;;;;;;;23.42;67.20703;939.7784;;;;
2021/06/19 05:24:58;;;;;;;10.1;8.1;;;;;;;23.21;68.41016;939.8688;;;;
2021/06/19 05:27:23;;;;;;;12.4;8.4;;;;;;;23.04;68.37207;939.8365;;;;
2021/06/19 05:29:49;;;;;;;10.6;8.6;;;;;;;22.97;68.72461;939.878;;;;
2021/06/19 05:32:14;;;;;;;11.2;8;;;;;;;23.11;69.36816;939.8936;;;;
2021/06/19 05:34:41;;;;;;;12.4;8.4;;;;;;;23.45;70.09277;939.9563;;;;
2021/06/19 05:37:05;;;;;;;9.9;7.8;;;;;;;23.88;67.44141;939.9398;;;;
2021/06/19 05:39:30;;;;;;;11.9;8.4;;;;;;;24.26;65.06055;939.9171;;;;
2021/06/19 05:41:55;;;;;;;11.7;7.8;;;;;;;24.21;65.90234;939.8447;;;;
2021/06/19 05:44:20;;;;;;;10.7;8.9;;;;;;;24.16;65.01074;939.8725;;;;
2021/06/19 05:46:45;;;;;;;11.4;8.3;;;;;;;24.13;65.70117;939.8886;;;;
2021/06/19 05:49:10;;;;;;;12.6;8.1;;;;;;;24.08;65.93066;939.9075;;;;
2021/06/19 05:51:35;;;;;;;10.9;8.9;;;;;;;23.98;65.18457;939.9828;;;;
2021/06/19 05:54:08;;;;;;;12.8;8.3;;;;;;;23.84;65.63379;939.9991;;;;
2021/06/19 05:56:33;;;;;;;11.7;8.1;;;;;;;23.85;65.84863;939.9344;;;;
2021/06/19 05:58:58;;;;;;;11.9;8.1;;;;;;;23.85;65.8252;939.976;;;;
2021/06/19 06:01:23;;;;;;;11.7;9;;;;;;;23.96;66.00586;939.9553;;;;
2021/06/19 06:03:49;;;;;;;10.5;8;;;;;;;24.12;65.63965;939.9353;;;;
2021/06/19 06:06:14;;;;;;;9.7;7.8;;;;;;;24.4;65.45703;940.0336;;;;
2021/06/19 06:08:39;;;;;;;9.8;8;;;;;;;24.84;61.5127;940.0438;;;;
2021/06/19 06:11:05;;;;;;;10.2;7.8;;;;;;;25.11;60.66504;940.0787;;;;
2021/06/19 06:13:30;;;;;;;9.1;8;;;;;;;25.01;60.56836;940.0684;;;;
2021/06/19 06:16:00;;;;;;;10.2;7.6;;;;;;;24.84;60.10938;940.0321;;;;
2021/06/19 06:18:25;;;;;;;8.9;7.3;;;;;;;25.03;60.83008;940.1191;;;;
2021/06/19 06:20:50;;;;;;;9.4;7.4;;;;;;;25.27;60.02344;940.1228;;;;
2021/06/19 06:23:16;;;;;;;8.7;6.8;;;;;;;25.75;58.22168;940.1203;;;;
2021/06/19 06:25:42;;;;;;;8;7.2;;;;;;;26.16;58.78418;940.1309;;;;
2021/06/19 06:28:07;;;;;;;10.4;6.7;;;;;;;26.68;55.28711;940.1265;;;;
2021/06/19 06:30:33;;;;;;;8.8;6.9;;;;;;;26.63;55.09082;940.0862;;;;
2021/06/19 06:32:58;;;;;;;9.1;6.6;;;;;;;27.15;54.12402;940.0958;;;;
2021/06/19 06:35:23;;;;;;;7.8;7;;;;;;;27.52;53.1123;940.0947;;;;
2021/06/19 06:37:48;;;;;;;7.6;6.6;;;;;;;27.62;53.70605;940.1131;;;;
2021/06/19 06:40:15;;;;;;;8.5;7;;;;;;;27.63;51.86816;940.1017;;;;
2021/06/19 06:42:41;;;;;;;8.9;6.9;;;;;;;27.46;52.27539;940.0989;;;;
2021/06/19 06:45:07;;;;;;;11.6;6.9;;;;;;;28.18;51.84863;940.1294;;;;
2021/06/19 06:47:33;;;;;;;7.6;6.7;;;;;;;28.76;49.83203;940.1177;;;;
2021/06/19 06:49:58;;;;;;;9.9;6.5;;;;;;;29.42;49.82227;940.1011;;;;
2021/06/19 06:52:24;;;;;;;7.8;6.9;;;;;;;30.18;47.24414;940.1202;;;;
2021/06/19 06:54:50;;;;;;;7;6.3;;;;;;;30.66;44.03125;940.0705;;;;
2021/06/19 06:57:15;;;;;;;8;6.8;;;;;;;30.74;44.51758;940.1457;;;;
2021/06/19 06:59:41;;;;;;;8;6.4;;;;;;;30.58;42.97266;940.1802;;;;
2021/06/19 07:02:05;;;;;;;8.6;7;;;;;;;30.54;43.60156;940.2308;;;;
2021/06/19 07:04:33;;;;;;;8.5;6.4;;;;;;;31.23;41.95801;940.1719;;;;
2021/06/19 07:06:58;;;;;;;6.9;6.2;;;;;;;31.44;42.98242;940.2126;;;;
2021/06/19 07:09:23;;;;;;;10.2;6.7;;;;;;;31.73;43.20117;940.1409;;;;
2021/06/19 07:11:48;;;;;;;7.9;6;;;;;;;32.14;41.90918;940.1053;;;;
2021/06/19 07:14:35;;;;;;;7.4;6.7;;;;;;;31.35;41.64551;940.0809;;;;
2021/06/19 07:17:07;;;;;;;11.3;6.7;;;;;;;29.64;45.67285;940.0359;;;;
2021/06/19 07:19:27;;;;;;;9.4;6.8;;;;;;;30.2;44.88184;940.0055;;;;
2021/06/19 07:21:54;;;;;;;8.6;6.8;;;;;;;30.97;44.08594;940.0106;;;;
2021/06/19 07:24:19;;;;;;;12.3;6.9;;;;;;;30.75;43.22754;939.9339;;;;
2021/06/19 07:26:44;;;;;;;8.2;6.5;;;;;;;30.63;43.12012;939.9318;;;;
2021/06/19 07:29:09;;;;;;;9.9;6.8;;;;;;;30.46;44.85938;939.8735;;;;
2021/06/19 07:31:34;;;;;;;7.2;6.5;;;;;;;29.23;47.03809;939.8375;;;;
2021/06/19 07:33:59;;;;;;;9.1;7.2;;;;;;;29.25;46.14648;939.7897;;;;
2021/06/19 07:36:25;;;;;;;10.4;6.7;;;;;;;28.62;47.60449;939.7816;;;;
2021/06/19 07:38:50;;;;;;;9;7.4;;;;;;;27.5;50.02539;939.7908;;;;
2021/06/19 07:41:16;;;;;;;8.4;7.5;;;;;;;27.18;51.70898;939.7491;;;;
2021/06/19 07:46:17;;;;;;;10.5;7.4;;;;;;;28.42;50.16309;939.6895;;;;
2021/06/19 07:48:41;;;;;;;10.4;6.9;;;;;;;28.9;48.00293;939.5642;;;;
2021/06/19 07:53:37;;;;;;;9.6;7.1;;;;;;;29.62;48.90234;939.5276;;;;
2021/06/19 07:56:02;;;;;;;10.3;6.9;;;;;;;30.12;45.4707;939.4816;;;;
2021/06/19 07:58:27;;;;;;;9.4;6.8;;;;;;;30.77;44.48438;939.4506;;;;
2021/06/19 08:00:52;;;;;;;8.6;6.6;;;;;;;32.13;42.52051;939.4645;;;;
2021/06/19 08:03:18;;;;;;;9;6.7;;;;;;;32.19;41.06348;939.472;;;;
2021/06/19 08:05:44;;;;;;;9.9;6.4;;;;;;;32.91;40.88867;939.4542;;;;
2021/06/19 08:08:16;;;;;;;7.9;6.5;;;;;;;33.32;39.0625;939.3914;;;;
2021/06/19 08:10:34;;;;;;;9.2;6.7;;;;;;;32.75;40.11719;939.4494;;;;
2021/06/19 08:13:02;;;;;;;9.9;6.5;;;;;;;32.8;41.81445;939.4459;;;;
2021/06/19 08:15:29;;;;;;;8.2;6.5;;;;;;;32.95;41.71973;939.3959;;;;
2021/06/19 08:17:55;;;;;;;8.9;6;;;;;;;33.1;42.16699;939.3717;;;;
2021/06/19 08:20:20;;;;;;;7;5.8;;;;;;;33.36;39.19727;939.317;;;;
2021/06/19 08:22:47;;;;;;;7;6.1;;;;;;;34.14;37.74805;939.2615;;;;
2021/06/19 08:25:11;;;;;;;9;5.9;;;;;;;33.32;41.15332;939.2379;;;;
2021/06/19 08:27:36;;;;;;;8.2;6.4;;;;;;;33.78;40.76172;939.2125;;;;
2021/06/19 08:30:01;;;;;;;15;6;;;;;;;34.25;37.78027;939.1522;;;;
2021/06/19 08:32:26;;;;;;;6.9;5.8;;;;;;;33.43;39.88965;939.1392;;;;
2021/06/19 08:34:52;;;;;;;10.1;5.8;;;;;;;33.36;43.01953;939.1436;;;;
2021/06/19 08:37:16;;;;;;;6.9;5.9;;;;;;;34.71;37.83105;939.1003;;;;
2021/06/19 08:39:42;;;;;;;9;6.2;;;;;;;34.55;37.4082;939.0625;;;;
2021/06/19 08:42:07;;;;;;;7.9;5.7;;;;;;;35.19;38.18457;939.1309;;;;
2021/06/19 08:44:32;;;;;;;5.7;5;;;;;;;34.27;38.62598;939.1291;;;;
2021/06/19 08:46:57;;;;;;;7.1;5.9;;;;;;;34.76;39.63184;939.1418;;;;
2021/06/19 08:49:22;;;;;;;9.4;5.5;;;;;;;35.36;38.89844;939.0843;;;;
2021/06/19 08:51:49;;;;;;;7.4;5.8;;;;;;;36.02;35.72656;939.0333;;;;
2021/06/19 08:54:13;;;;;;;7;5.5;;;;;;;35.81;34.2002;939.0111;;;;
2021/06/19 08:56:39;;;;;;;6.6;5.8;;;;;;;34.8;38.03125;938.9303;;;;
2021/06/19 08:59:04;;;;;;;8.6;5.4;;;;;;;34.67;37.18848;938.86;;;;
2021/06/19 09:01:30;;;;;;;7.1;5.8;;;;;;;34.99;35.87598;938.834;;;;
2021/06/19 09:03:55;;;;;;;9.1;5.8;;;;;;;34.22;38.30859;938.8265;;;;
2021/06/19 09:06:21;;;;;;;8.6;5.6;;;;;;;33.86;39.4209;938.8777;;;;
2021/06/19 09:08:46;;;;;;;17;6.1;;;;;;;33.4;39.70703;938.8608;;;;
2021/06/19 09:11:13;;;;;;;7.5;5.3;;;;;;;33.98;40.09375;938.8688;;;;
2021/06/19 09:13:38;;;;;;;8.3;5.4;;;;;;;34.03;39.67676;938.8621;;;;
2021/06/19 09:16:10;;;;;;;7.8;5;;;;;;;34.59;41.07617;938.742;;;;
2021/06/19 09:18:36;;;;;;;7.5;5.3;;;;;;;35.17;36.24023;938.7667;;;;
2021/06/19 09:21:01;;;;;;;9.1;5.3;;;;;;;34.46;38.21973;938.7684;;;;
2021/06/19 09:23:30;;;;;;;5.1;4.3;;;;;;;35.16;35.80566;938.7874;;;;
2021/06/19 09:25:55;;;;;;;6.7;4.1;;;;;;;34.43;38.88086;938.7162;;;;
2021/06/19 09:28:20;;;;;;;3.1;1.8;;;;;;;33.81;39.36816;938.7441;;;;
2021/06/19 09:30:46;;;;;;;0.8;0.7;;;;;;;33.03;41.12695;938.7167;;;;
2021/06/19 09:33:12;;;;;;;0.9;0.9;;;;;;;33.79;39.27051;938.6869;;;;
2021/06/19 09:35:36;;;;;;;1.2;1.1;;;;;;;34.22;38.9707;938.6855;;;;
2021/06/19 09:38:01;;;;;;;3.3;1.8;;;;;;;33.41;41.25781;938.6526;;;;
2021/06/19 09:40:26;;;;;;;0.9;0.5;;;;;;;32.2;45.17676;938.6781;;;;
2021/06/19 09:42:53;;;;;;;0.6;0.6;;;;;;;32.83;41.8418;938.6631;;;;
2021/06/19 09:45:19;;;;;;;1.5;1.2;;;;;;;32.13;44.40234;938.657;;;;
2021/06/19 09:49:00;;;;;;;0.7;0.7;;;;;;;32.39;43.38379;938.6207;;;;
2021/06/19 09:51:08;;;;;;;0.8;0.8;;;;;;;32.17;44.71777;938.5683;;;;
2021/06/19 09:53:33;;;;;;;0.6;0.6;;;;;;;31.71;45.31934;938.4367;;;;
2021/06/19 09:55:58;;;;;;;1.2;1.1;;;;;;;32.31;43.75977;938.3453;;;;
2021/06/19 09:58:23;;;;;;;0.7;0.7;;;;;;;32.43;42.56055;938.401;;;;
2021/06/19 10:00:48;;;;;;;0.4;0.4;;;;;;;33.06;41.89941;938.3445;;;;
2021/06/19 10:03:14;;;;;;;1.1;1;;;;;;;33.24;41.18262;938.2896;;;;
2021/06/19 10:05:41;;;;;;;1;0.9;;;;;;;33.45;42.64453;938.301;;;;
2021/06/19 10:08:07;;;;;;;1.2;0.8;;;;;;;31.94;42.88672;938.2285;;;;
2021/06/19 10:10:32;;;;;;;1.3;1.2;;;;;;;31.54;46.72656;938.2498;;;;
2021/06/19 10:12:56;;;;;;;1.1;1.1;;;;;;;31.26;46.86621;938.1974;;;;
2021/06/19 10:15:22;;;;;;;0.5;0.5;;;;;;;31.17;48.24414;938.1559;;;;
2021/06/19 10:17:49;;;;;;;8.5;1.6;;;;;;;30.3;48.56934;938.0748;;;;
2021/06/19 10:20:14;;;;;;;1.6;1.4;;;;;;;30.31;48.79688;938.0251;;;;
2021/06/19 10:22:39;;;;;;;3.1;1.2;;;;;;;30.98;48.69141;937.959;;;;
2021/06/19 10:25:53;;;;;;;1.5;1.4;;;;;;;31.07;47.82715;937.9358;;;;
2021/06/19 10:28:19;;;;;;;1.6;1.2;;;;;;;31.23;47.3291;937.8684;;;;
2021/06/19 10:30:44;;;;;;;1.6;0.8;;;;;;;31.17;48.23242;937.7751;;;;
2021/06/19 10:33:09;;;;;;;1.2;1.1;;;;;;;31.27;45.86133;937.7543;;;;
2021/06/19 10:35:49;;;;;;;0.5;0.5;;;;;;;31.33;44.55176;937.6995;;;;
2021/06/19 10:38:14;;;;;;;0.7;0.7;;;;;;;31.37;45.84766;937.7209;;;;
2021/06/19 10:40:41;;;;;;;1.1;1.1;;;;;;;31.41;46.2832;937.7352;;;;
2021/06/19 10:43:06;;;;;;;2.5;1.5;;;;;;;31.44;47.4834;937.6992;;;;
2021/06/19 10:45:32;;;;;;;0.9;0.9;;;;;;;31.08;46.88281;937.6431;;;;
2021/06/19 10:47:57;;;;;;;2.1;1.1;;;;;;;31.2;46.33398;937.5491;;;;
2021/06/19 10:50:22;;;;;;;0.5;0.5;;;;;;;31.26;48.25488;937.4776;;;;
2021/06/19 10:52:48;;;;;;;2.5;0.7;;;;;;;30.73;48.61621;937.4878;;;;
2021/06/19 10:55:16;;;;;;;1.7;1.4;;;;;;;30.56;48.42969;937.4319;;;;
2021/06/19 10:57:41;;;;;;;5.7;1.5;;;;;;;30.58;47.28516;937.42;;;;
2021/06/19 11:00:06;;;;;;;0.9;0.9;;;;;;;30.77;48.16602;937.3781;;;;
2021/06/19 11:02:31;;;;;;;3.1;0.9;;;;;;;30.62;48.81934;937.3431;;;;
2021/06/19 11:04:56;;;;;;;1.2;0.7;;;;;;;30.33;49.71875;937.3546;;;;
2021/06/19 11:07:21;;;;;;;0.7;0.7;;;;;;;30.48;49.29395;937.3226;;;;
2021/06/19 11:09:51;;;;;;;0.9;0.9;;;;;;;30.44;48.73926;937.1989;;;;
2021/06/19 11:12:16;;;;;;;0.6;0.6;;;;;;;30.48;49.17383;937.1578;;;;
2021/06/19 11:14:41;;;;;;;0.6;0.6;;;;;;;30.76;46.56348;937.1111;;;;
2021/06/19 11:17:06;;;;;;;0.6;0.6;;;;;;;31.07;48.54395;937.0828;;;;
2021/06/19 11:19:32;;;;;;;1.2;1;;;;;;;31.25;47.40234;937.0754;;;;
2021/06/19 11:21:58;;;;;;;1.6;1.5;;;;;;;31.22;44.70801;937.0494;;;;
2021/06/19 11:24:24;;;;;;;0.9;0.9;;;;;;;31.09;46.27344;936.9669;;;;
2021/06/19 11:26:51;;;;;;;0.8;0.8;;;;;;;30.98;47.0166;936.9588;;;;
2021/06/19 11:29:14;;;;;;;0.6;0.6;;;;;;;30.81;47.28516;936.9924;;;;
2021/06/19 11:31:39;;;;;;;1;0.9;;;;;;;30.91;46.79395;936.9485;;;;
2021/06/19 11:34:04;;;;;;;1.7;1;;;;;;;30.62;48.56738;936.8694;;;;
2021/06/19 11:36:30;;;;;;;1.8;1.1;;;;;;;30.7;46.67676;936.8655;;;;
2021/06/19 11:38:56;;;;;;;0.7;0.7;;;;;;;30.84;47.22949;936.8381;;;;
2021/06/19 11:41:20;;;;;;;1.1;0.8;;;;;;;30.81;48.52832;936.8006;;;;
2021/06/19 11:43:45;;;;;;;2.6;1.1;;;;;;;30.83;49.19922;936.7551;;;;
2021/06/19 11:46:10;;;;;;;0.8;0.8;;;;;;;30.8;49.41309;936.7263;;;;
2021/06/19 11:48:44;;;;;;;0.6;0.6;;;;;;;30.79;47.57031;936.712;;;;
2021/06/19 11:51:09;;;;;;;0.8;0.8;;;;;;;30.72;49.2959;936.6719;;;;
2021/06/19 11:53:35;;;;;;;1.2;1.1;;;;;;;30.47;49.54297;936.6392;;;;
2021/06/19 11:56:00;;;;;;;0.7;0.7;;;;;;;30.47;49.10156;936.5721;;;;
2021/06/19 11:58:25;;;;;;;0.6;0.6;;;;;;;30.81;46.81934;936.6262;;;;
2021/06/19 12:00:50;;;;;;;1.9;1.1;;;;;;;30.66;49.36035;936.5666;;;;
2021/06/19 12:03:17;;;;;;;1.4;0.9;;;;;;;30.72;47.20508;936.5611;;;;
2021/06/19 12:05:42;;;;;;;1.4;0.9;;;;;;;30.79;46.42285;936.5294;;;;
2021/06/19 12:08:07;;;;;;;0.8;0.8;;;;;;;30.79;48.69336;936.4504;;;;
2021/06/19 12:10:35;;;;;;;1.4;0.9;;;;;;;31.08;47.83984;936.3494;;;;
2021/06/19 12:13:00;;;;;;;1.4;1.2;;;;;;;31.24;46.76758;936.3699;;;;
2021/06/19 12:15:25;;;;;;;0.7;0.7;;;;;;;31.32;45.43652;936.3373;;;;
2021/06/19 12:17:50;;;;;;;0.8;0.7;;;;;;;30.94;47.65723;936.2242;;;;
2021/06/19 12:20:15;;;;;;;1.8;0.8;;;;;;;30.85;47.64941;936.2673;;;;
2021/06/19 12:22:40;;;;;;;1.4;0.9;;;;;;;30.91;47.30859;936.2639;;;;
2021/06/19 12:25:05;;;;;;;0.9;0.9;;;;;;;30.72;48.42285;936.2112;;;;
2021/06/19 12:27:31;;;;;;;7;1.6;;;;;;;30.58;51.32324;936.2639;;;;
2021/06/19 12:29:57;;;;;;;1;1;;;;;;;31.07;48.29297;936.1631;;;;
2021/06/19 12:32:23;;;;;;;0.7;0.7;;;;;;;31.26;45.64648;936.0276;;;;
2021/06/19 12:34:48;;;;;;;0.7;0.7;;;;;;;31.36;46.20605;935.9941;;;;
2021/06/19 12:37:13;;;;;;;2.6;1.8;;;;;;;31.3;47.19238;936.0173;;;;
2021/06/19 12:39:38;;;;;;;3.8;1.2;;;;;;;31.32;45.84277;936.0224;;;;
2021/06/19 12:42:04;;;;;;;4.3;0.7;;;;;;;31.1;48.16504;935.9927;;;;
2021/06/19 12:44:29;;;;;;;0.5;0.5;;;;;;;30.96;48.81934;935.9899;;;;
2021/06/19 12:46:54;;;;;;;1.8;1.3;;;;;;;31.26;45.75391;935.992;;;;
2021/06/19 12:49:19;;;;;;;1.2;1.1;;;;;;;31.31;47.48242;935.9702;;;;
2021/06/19 12:51:44;;;;;;;1.8;1.7;;;;;;;31.44;47.42383;936.0207;;;;
2021/06/19 12:54:09;;;;;;;0.8;0.8;;;;;;;31.24;47.56934;935.9216;;;;
2021/06/19 12:56:34;;;;;;;0.8;0.8;;;;;;;31.39;47.87207;935.9252;;;;
2021/06/19 12:58:59;;;;;;;1.7;1.1;;;;;;;31.32;46.83594;935.9292;;;;
2021/06/19 13:01:25;;;;;;;0.7;0.7;;;;;;;31.52;46.03027;935.8974;;;;
2021/06/19 13:03:50;;;;;;;0.6;0.6;;;;;;;31.4;46.42578;935.8786;;;;
2021/06/19 13:06:16;;;;;;;0.9;0.9;;;;;;;31.64;45.85156;935.8077;;;;
2021/06/19 13:08:41;;;;;;;1.1;1;;;;;;;31.54;45.60254;935.7548;;;;
2021/06/19 13:11:06;;;;;;;4.2;1.4;;;;;;;31.7;45.85742;935.8205;;;;
2021/06/19 13:13:31;;;;;;;0.8;0.8;;;;;;;31.46;44.20605;935.7722;;;;
2021/06/19 13:16:01;;;;;;;0.6;0.6;;;;;;;31.45;46.76563;935.7734;;;;
2021/06/19 13:18:26;;;;;;;1.2;1.1;;;;;;;31.16;48.32813;935.8066;;;;
2021/06/19 13:20:51;;;;;;;1;1;;;;;;;31.43;44.53613;935.7905;;;;
2021/06/19 13:23:17;;;;;;;1.2;1;;;;;;;31.35;44.42188;935.685;;;;
2021/06/19 13:25:41;;;;;;;1;1;;;;;;;31.15;47.40527;935.7075;;;;
2021/06/19 13:28:06;;;;;;;0.7;0.7;;;;;;;31.26;47.7627;935.7302;;;;
2021/06/19 13:30:32;;;;;;;0.9;0.9;;;;;;;31.28;45.875;935.6689;;;;
2021/06/19 13:33:11;;;;;;;0.6;0.6;;;;;;;31.33;47.14844;935.6174;;;;
2021/06/19 13:35:37;;;;;;;0.7;0.7;;;;;;;31.52;44.40234;935.6199;;;;
2021/06/19 13:38:02;;;;;;;0.5;0.5;;;;;;;31.39;44.34277;935.6309;;;;
2021/06/19 13:40:27;;;;;;;1.9;1.4;;;;;;;31.45;46.33496;935.6934;;;;
2021/06/19 13:42:55;;;;;;;1.3;1;;;;;;;31.41;45.39844;935.6458;;;;
2021/06/19 13:45:20;;;;;;;1.9;1.2;;;;;;;31.45;47.0166;935.6384;;;;
2021/06/19 13:47:46;;;;;;;1.2;1.1;;;;;;;31.53;45.25391;935.6289;;;;
2021/06/19 13:50:11;;;;;;;0.9;0.9;;;;;;;31.51;44.78418;935.6127;;;;
2021/06/19 13:52:37;;;;;;;0.8;0.8;;;;;;;31.22;46.58691;935.6397;;;;
2021/06/19 13:55:02;;;;;;;1;1;;;;;;;31.25;46.33887;935.56;;;;
2021/06/19 13:59:55;;;;;;;0.9;0.9;;;;;;;30.87;45.66699;935.4666;;;;
2021/06/19 14:02:19;;;;;;;1;1;;;;;;;30.8;46.38867;935.5055;;;;
2021/06/19 14:04:45;;;;;;;0.8;0.8;;;;;;;31.1;45.18652;935.3985;;;;
2021/06/19 14:07:09;;;;;;;1.3;0.9;;;;;;;31.16;46.03125;935.4528;;;;
2021/06/19 14:09:34;;;;;;;1.4;1.3;;;;;;;31.36;45.2373;935.3856;;;;
2021/06/19 14:12:00;;;;;;;1.1;1;;;;;;;31.39;45.41992;935.3675;;;;
2021/06/19 14:14:36;;;;;;;0.8;0.8;;;;;;;31.46;44.10938;935.3611;;;;
2021/06/19 14:17:01;;;;;;;0.8;0.8;;;;;;;31.38;45.56152;935.3203;;;;
2021/06/19 14:19:26;;;;;;;0.8;0.8;;;;;;;31.34;44.86426;935.295;;;;
2021/06/19 14:21:51;;;;;;;2;1;;;;;;;31.24;44.9375;935.2612;;;;
2021/06/19 14:24:19;;;;;;;4.8;1.2;;;;;;;31.36;44.13574;935.2395;;;;